Time;durP1;ratioP1;P1;durP2;ratioP2;P2;SDS_P1;SDS_P2;PMS_P1;PMS_P2;Temp;Humidity;BMP_temperature;BMP_pressure;BME280_temperature;BME280_humidity;BME280_pressure;Samples;Min_cycle;Max_cycle;Signal;HPM_P1;HPM_P2
2022/12/18 00:00:57;;;;;;;;;36.50;24.50;;;;;-1.40;68.05;102210.47;5017606;28;45536;-88
2022/12/18 00:03:23;;;;;;;;;28.00;21.00;;;;;-1.38;67.90;102202.88;5017898;28;45453;-88
2022/12/18 00:05:49;;;;;;;;;41.25;25.25;;;;;-1.33;68.17;102206.50;5018078;28;45750;-89
2022/12/18 00:08:15;;;;;;;;;30.50;24.50;;;;;-1.31;68.17;102211.69;5018460;28;45443;-89
2022/12/18 00:10:41;;;;;;;;;33.50;22.00;;;;;-1.31;68.09;102210.00;5018151;28;47317;-88
2022/12/18 00:13:09;;;;;;;;;33.25;24.50;;;;;-1.33;67.51;102203.94;5004713;28;45816;-88
2022/12/18 00:15:35;;;;;;;;;34.00;24.00;;;;;-1.35;68.02;102200.47;5021612;28;45414;-88
2022/12/18 00:18:00;;;;;;;;;42.50;26.50;;;;;-1.39;67.86;102196.03;5021615;28;45527;-89
2022/12/18 00:20:26;;;;;;;;;36.75;28.50;;;;;-1.40;67.86;102202.78;5004942;28;47255;-88
2022/12/18 00:22:52;;;;;;;;;39.50;25.00;;;;;-1.42;67.85;102206.09;5039248;28;45342;-89
2022/12/18 00:25:18;;;;;;;;;39.75;24.00;;;;;-1.45;67.74;102201.75;5021662;28;45385;-89
2022/12/18 00:27:43;;;;;;;;;36.00;19.50;;;;;-1.44;67.95;102200.91;5021452;28;45381;-88
2022/12/18 00:30:10;;;;;;;;;29.75;18.00;;;;;-1.43;67.91;102199.22;5021011;28;47084;-89
2022/12/18 00:32:35;;;;;;;;;29.00;22.00;;;;;-1.44;67.89;102203.47;5037478;28;45839;-88
2022/12/18 00:35:00;;;;;;;;;37.75;24.75;;;;;-1.46;67.75;102201.69;5021522;28;45400;-89
2022/12/18 00:37:33;;;;;;;;;30.25;25.50;;;;;-1.47;67.59;102207.56;5021386;28;45752;-88
2022/12/18 00:39:58;;;;;;;;;26.00;24.00;;;;;-1.48;67.75;102216.94;5021787;28;46675;-88
2022/12/18 00:45:08;;;;;;;;;34.00;21.00;;;;;-1.52;67.84;102209.94;5008534;28;45480;-89
2022/12/18 00:47:34;;;;;;;;;31.50;24.50;;;;;-1.54;67.63;102201.34;5004184;28;45464;-89
2022/12/18 00:50:05;;;;;;;;;30.50;20.00;;;;;-1.54;67.74;102201.34;5004359;28;47232;-88
2022/12/18 00:52:30;;;;;;;;;32.00;21.25;;;;;-1.57;67.92;102186.75;5038336;28;45796;-89
2022/12/18 00:54:56;;;;;;;;;29.00;22.00;;;;;-1.60;67.79;102193.38;5021063;28;45417;-87
2022/12/18 00:57:21;;;;;;;;;26.25;16.00;;;;;-1.65;67.87;102189.78;5020744;28;45374;-88
2022/12/18 00:59:47;;;;;;;;;30.00;22.00;;;;;-1.69;67.62;102196.44;5037420;28;47190;-89
2022/12/18 01:02:12;;;;;;;;;32.50;24.25;;;;;-1.70;68.13;102189.56;5020472;28;45433;-89
2022/12/18 01:04:40;;;;;;;;;28.25;17.75;;;;;-1.71;68.02;102192.91;5020961;28;45314;-88
2022/12/18 01:07:05;;;;;;;;;32.50;21.75;;;;;-1.70;68.00;102186.16;5021221;28;45416;-88
2022/12/18 01:09:31;;;;;;;;;25.50;18.25;;;;;-1.71;68.02;102190.34;5004244;28;48209;-88
2022/12/18 01:11:56;;;;;;;;;29.75;25.25;;;;;-1.72;68.04;102186.06;5004259;28;45305;-88
2022/12/18 01:14:24;;;;;;;;;30.50;27.75;;;;;-1.71;67.81;102182.69;5021006;28;45408;-88
2022/12/18 01:16:50;;;;;;;;;34.75;25.00;;;;;-1.72;67.77;102177.53;5020318;28;45577;-88
2022/12/18 01:19:15;;;;;;;;;27.50;18.75;;;;;-1.72;68.01;102175.84;5020511;28;45794;-88
2022/12/18 01:21:43;;;;;;;;;37.00;22.00;;;;;-1.73;68.00;102179.19;5037143;28;45672;-88
2022/12/18 01:24:11;;;;;;;;;27.75;20.75;;;;;-1.71;68.32;102176.72;5020607;28;45395;-88
2022/12/18 01:26:37;;;;;;;;;32.00;24.25;;;;;-1.71;68.10;102177.59;5004155;28;45362;-88
2022/12/18 01:29:02;;;;;;;;;31.75;19.00;;;;;-1.71;67.98;102182.69;5020458;28;45360;-88
2022/12/18 01:31:32;;;;;;;;;25.25;23.25;;;;;-1.74;67.75;102185.13;5003903;28;45323;-88
2022/12/18 01:34:03;;;;;;;;;29.00;23.50;;;;;-1.73;68.28;102186.84;5020290;28;45480;-89
2022/12/18 01:36:33;;;;;;;;;39.50;23.75;;;;;-1.73;68.26;102183.44;5004254;28;45469;-89
2022/12/18 01:39:07;;;;;;;;;16.75;14.50;;;;;-1.71;67.94;102184.38;5037089;28;47215;-89
2022/12/18 01:44:45;;;;;;;;;21.75;14.50;;;;;-1.70;67.86;102170.81;5048482;28;45408;-88
2022/12/18 01:47:16;;;;;;;;;34.50;19.75;;;;;-1.71;68.21;102175.03;5039085;28;45207;-89
2022/12/18 01:49:41;;;;;;;;;31.25;23.50;;;;;-1.70;67.82;102163.16;5020174;28;46225;-89
2022/12/18 01:52:10;;;;;;;;;25.00;18.00;;;;;-1.72;68.14;102165.66;5003651;28;45454;-88
2022/12/18 01:54:45;;;;;;;;;26.50;23.25;;;;;-1.72;68.15;102167.34;5020917;28;45316;-89
2022/12/18 01:57:11;;;;;;;;;32.00;27.25;;;;;-1.71;68.13;102163.97;5020668;28;45307;-88
2022/12/18 01:59:36;;;;;;;;;34.00;27.00;;;;;-1.74;68.01;102158.75;5019049;28;46587;-87
2022/12/18 02:02:03;;;;;;;;;35.00;26.50;;;;;-1.76;67.88;102156.97;5002651;28;45924;-86
2022/12/18 02:04:29;;;;;;;;;23.75;20.25;;;;;-1.76;68.19;102162.09;5019325;28;45406;-86
2022/12/18 02:07:03;;;;;;;;;33.75;25.75;;;;;-1.77;67.91;102155.22;5002943;28;45506;-87
2022/12/18 02:09:34;;;;;;;;;34.00;25.00;;;;;-1.77;68.08;102154.34;5019286;28;47666;-87
2022/12/18 02:12:07;;;;;;;;;33.75;25.25;;;;;-1.80;67.98;102147.44;5002860;28;45771;-87
2022/12/18 02:14:39;;;;;;;;;44.50;27.00;;;;;-1.81;67.82;102149.91;5019289;28;45219;-87
2022/12/18 02:17:18;;;;;;;;;30.75;24.25;;;;;-1.82;67.94;102158.38;5019259;28;45415;-88
2022/12/18 02:20:07;;;;;;;;;32.75;21.50;;;;;-1.87;67.82;102147.09;5019225;28;45952;-88
2022/12/18 02:22:58;;;;;;;;;30.50;22.50;;;;;-1.89;68.41;102141.94;5036856;28;45529;-88
2022/12/18 02:25:41;;;;;;;;;34.00;20.50;;;;;-1.96;68.46;102133.09;5019304;28;45285;-87
2022/12/18 02:28:10;;;;;;;;;23.00;20.00;;;;;-1.99;68.55;102129.53;5002710;28;45346;-88
2022/12/18 02:30:37;;;;;;;;;32.00;20.00;;;;;-1.99;68.38;102137.19;5019097;28;45754;-88
2022/12/18 02:33:05;;;;;;;;;37.00;21.00;;;;;-1.98;68.25;102131.31;5002856;28;45872;-88
2022/12/18 02:35:30;;;;;;;;;34.00;22.00;;;;;-1.99;68.65;102133.00;5002083;28;45473;-88
2022/12/18 02:37:57;;;;;;;;;27.75;21.25;;;;;-1.98;68.47;102131.31;5002690;28;45525;-88
2022/12/18 02:40:24;;;;;;;;;29.00;19.00;;;;;-1.99;68.45;102122.78;5002404;28;47020;-88
2022/12/18 02:42:52;;;;;;;;;32.00;21.50;;;;;-1.99;68.86;102122.78;5002126;28;45573;-88
2022/12/18 02:45:18;;;;;;;;;30.25;23.50;;;;;-1.96;68.78;102125.44;5022754;28;45362;-88
2022/12/18 02:47:46;;;;;;;;;26.00;18.00;;;;;-1.95;68.73;102124.66;5057394;28;45498;-88
2022/12/18 02:50:35;;;;;;;;;26.25;21.50;;;;;-1.97;68.52;102123.72;5022549;28;47222;-88
2022/12/18 02:53:34;;;;;;;;;26.00;21.00;;;;;-1.98;68.39;102113.44;5038865;28;45834;-88
2022/12/18 02:56:14;;;;;;;;;25.25;18.75;;;;;-1.98;68.77;102116.00;5039082;28;45390;-88
2022/12/18 02:59:13;;;;;;;;;21.25;16.50;;;;;-2.01;68.98;102110.75;5056442;28;45294;-88
2022/12/18 03:01:57;;;;;;;;;23.00;14.25;;;;;-1.99;68.89;102104.03;5038698;28;46416;-88
2022/12/18 03:04:43;;;;;;;;;21.00;12.75;;;;;-1.97;68.88;102102.41;5022173;28;45977;-89
2022/12/18 03:07:14;;;;;;;;;26.50;14.50;;;;;-1.96;68.73;102102.47;5056444;28;45417;-88
2022/12/18 03:09:42;;;;;;;;;30.75;23.75;;;;;-1.96;69.02;102111.84;5022330;28;45420;-88
2022/12/18 03:12:23;;;;;;;;;29.50;20.00;;;;;-1.97;69.02;102112.63;5021390;28;47380;-88
2022/12/18 03:14:54;;;;;;;;;29.00;22.50;;;;;-1.99;68.69;102111.69;5039615;28;46088;-88
2022/12/18 03:17:20;;;;;;;;;23.00;18.50;;;;;-1.99;68.78;102107.47;5038871;28;45274;-88
2022/12/18 03:19:47;;;;;;;;;24.50;17.50;;;;;-2.00;68.78;102110.81;5018972;28;45507;-88
2022/12/18 03:22:13;;;;;;;;;24.00;18.75;;;;;-2.00;69.02;102112.50;5036497;28;48171;-88
2022/12/18 03:24:39;;;;;;;;;24.50;21.25;;;;;-2.02;68.92;102112.44;5038837;28;46052;-88
2022/12/18 03:27:08;;;;;;;;;23.75;15.25;;;;;-2.04;69.02;102119.16;5038351;28;45417;-88
2022/12/18 03:29:38;;;;;;;;;34.00;21.50;;;;;-2.03;68.81;102113.22;5038778;28;45320;-88
2022/12/18 03:32:11;;;;;;;;;32.50;23.00;;;;;-2.07;69.21;102115.59;5056094;28;46249;-88
2022/12/18 03:34:38;;;;;;;;;30.50;19.50;;;;;-2.08;68.97;102116.38;5038467;28;45325;-88
2022/12/18 03:37:05;;;;;;;;;27.25;20.00;;;;;-2.08;69.03;102112.16;5038644;28;45337;-88
2022/12/18 03:39:31;;;;;;;;;24.75;18.00;;;;;-2.07;69.27;102113.03;5038414;28;45824;-88
2022/12/18 03:42:08;;;;;;;;;35.00;27.25;;;;;-2.06;69.09;102107.09;5037810;28;48534;-88
2022/12/18 03:44:43;;;;;;;;;34.50;19.50;;;;;-2.04;69.51;102097.88;5037904;28;46118;-88
2022/12/18 03:47:32;;;;;;;;;28.75;21.50;;;;;-2.02;69.13;102099.66;5037151;28;45436;-88
2022/12/18 03:50:16;;;;;;;;;22.25;16.25;;;;;-2.01;69.04;102100.53;5018389;28;45628;-88
2022/12/18 03:53:05;;;;;;;;;32.50;21.00;;;;;-2.04;69.28;102105.53;5017840;28;47554;-88
2022/12/18 03:55:33;;;;;;;;;25.25;19.00;;;;;-2.01;68.94;102092.88;4977287;28;45908;-88
2022/12/18 03:57:59;;;;;;;;;31.50;24.25;;;;;-2.04;69.14;102092.78;4977784;28;45429;-88
2022/12/18 04:00:25;;;;;;;;;34.00;23.75;;;;;-2.05;69.16;102088.47;4977839;28;45360;-88
2022/12/18 04:02:52;;;;;;;;;29.25;21.25;;;;;-2.07;69.22;102078.19;4977741;28;45926;-88
2022/12/18 04:05:19;;;;;;;;;35.50;19.50;;;;;-2.08;69.45;102078.09;4977647;28;46040;-88
2022/12/18 04:07:47;;;;;;;;;24.75;19.00;;;;;-2.06;69.13;102079.94;4994325;28;45317;-88
2022/12/18 04:10:13;;;;;;;;;32.00;24.25;;;;;-2.08;69.37;102073.91;4977267;28;45518;-88
2022/12/18 04:12:39;;;;;;;;;27.75;22.25;;;;;-2.08;69.29;102075.56;4961589;28;47435;-88
2022/12/18 04:15:05;;;;;;;;;37.50;22.75;;;;;-2.07;69.26;102080.72;4961089;28;45512;-88
2022/12/18 04:17:31;;;;;;;;;32.25;21.25;;;;;-2.09;69.42;102087.44;4994020;28;45657;-87
2022/12/18 04:19:56;;;;;;;;;43.00;23.75;;;;;-2.06;69.32;102096.91;4977887;28;45281;-88
2022/12/18 04:22:22;;;;;;;;;29.50;18.75;;;;;-2.05;69.16;102094.41;4960795;28;47311;-88
2022/12/18 04:24:47;;;;;;;;;35.50;20.75;;;;;-2.08;69.12;102088.31;4977322;28;45290;-88
2022/12/18 04:27:13;;;;;;;;;28.00;21.00;;;;;-2.09;69.36;102081.47;4961240;28;45482;-88
2022/12/18 04:29:40;;;;;;;;;36.50;24.25;;;;;-2.12;69.56;102074.53;4993773;28;45256;-88
2022/12/18 04:32:07;;;;;;;;;24.50;17.50;;;;;-2.15;69.60;102066.78;4986792;28;48436;-88
2022/12/18 04:34:34;;;;;;;;;46.00;28.00;;;;;-2.14;69.77;102071.06;5017720;28;45868;-88
2022/12/18 04:37:00;;;;;;;;;30.25;21.50;;;;;-2.16;69.40;102083.72;5035892;28;45413;-88
2022/12/18 04:39:25;;;;;;;;;34.75;22.25;;;;;-2.15;69.77;102082.06;5017795;28;45474;-88
2022/12/18 04:41:51;;;;;;;;;26.25;22.00;;;;;-2.15;69.83;102090.59;5035281;28;45440;-88
2022/12/18 04:44:17;;;;;;;;;29.25;22.25;;;;;-2.15;69.56;102090.59;5000729;28;45778;-88
2022/12/18 04:46:47;;;;;;;;;27.00;18.75;;;;;-2.11;69.67;102095.84;5029885;28;45263;-88
2022/12/18 04:49:14;;;;;;;;;32.25;26.50;;;;;-2.09;69.88;102097.66;5054143;28;45304;-88
2022/12/18 04:51:39;;;;;;;;;22.75;18.50;;;;;-2.10;69.31;102084.81;5037480;28;45380;-88
2022/12/18 04:54:05;;;;;;;;;34.50;24.00;;;;;-2.08;69.69;102088.31;5055017;28;45511;-88
2022/12/18 04:56:31;;;;;;;;;30.75;21.00;;;;;-2.10;69.06;102089.91;5055515;28;45801;-88
2022/12/18 04:58:57;;;;;;;;;27.00;18.25;;;;;-2.11;69.26;102081.41;5040435;28;45400;-88
2022/12/18 05:01:22;;;;;;;;;22.75;16.50;;;;;-2.10;69.61;102084.81;5040607;28;47122;-89
2022/12/18 05:03:48;;;;;;;;;30.75;21.75;;;;;-2.13;69.50;102080.47;5040959;28;45322;-88
2022/12/18 05:06:13;;;;;;;;;30.25;22.50;;;;;-2.14;69.39;102094.00;5040404;28;45340;-88
2022/12/18 05:08:41;;;;;;;;;23.50;20.50;;;;;-2.11;69.61;102090.75;5040723;28;45183;-88
2022/12/18 05:11:15;;;;;;;;;24.00;21.00;;;;;-2.13;69.26;102090.66;5057388;28;47123;-88
2022/12/18 05:13:41;;;;;;;;;29.00;20.50;;;;;-2.13;69.37;102100.88;5058939;28;45225;-88
2022/12/18 05:16:07;;;;;;;;;30.75;13.00;;;;;-2.11;69.47;102099.25;5040863;28;45468;-88
2022/12/18 05:18:33;;;;;;;;;36.25;27.75;;;;;-2.11;69.52;102096.72;5040443;28;45338;-88
2022/12/18 05:20:58;;;;;;;;;36.00;23.00;;;;;-2.10;69.35;102100.13;5023682;28;46910;-88
2022/12/18 05:23:24;;;;;;;;;22.00;16.00;;;;;-2.11;69.32;102112.03;5023436;28;45470;-88
2022/12/18 05:25:58;;;;;;;;;33.25;18.25;;;;;-2.12;69.59;102114.50;5056962;28;45421;-88
2022/12/18 05:28:25;;;;;;;;;32.75;18.75;;;;;-2.10;69.60;102121.41;5040036;28;45334;-86
2022/12/18 05:30:54;;;;;;;;;27.75;20.50;;;;;-2.08;69.38;102119.81;5056213;28;48518;-86
2022/12/18 05:33:22;;;;;;;;;34.25;24.00;;;;;-2.05;69.63;102116.53;5039715;28;45865;-87
2022/12/18 05:35:51;;;;;;;;;31.25;22.00;;;;;-2.06;69.23;102108.00;5040117;28;45466;-87
2022/12/18 05:38:17;;;;;;;;;27.00;21.50;;;;;-2.05;69.32;102104.63;5057962;28;45584;-87
2022/12/18 05:40:43;;;;;;;;;24.25;16.00;;;;;-2.04;69.40;102103.84;5057561;28;45530;-88
2022/12/18 05:43:09;;;;;;;;;21.50;17.00;;;;;-2.01;69.25;102100.53;5056279;28;45373;-88
2022/12/18 05:45:37;;;;;;;;;30.50;21.75;;;;;-2.01;69.38;102098.84;5052032;28;45349;-87
2022/12/18 05:48:03;;;;;;;;;24.25;18.50;;;;;-1.98;69.39;102101.56;5020423;28;45403;-87
2022/12/18 05:50:31;;;;;;;;;26.75;19.25;;;;;-2.00;69.17;102103.16;5020137;28;47152;-87
2022/12/18 05:52:56;;;;;;;;;32.25;21.00;;;;;-2.02;69.48;102103.91;5019586;28;45476;-87
2022/12/18 05:55:22;;;;;;;;;24.25;18.50;;;;;-2.01;69.26;102092.88;5037997;28;45883;-88
2022/12/18 05:57:47;;;;;;;;;26.00;20.00;;;;;-1.99;69.46;102086.16;5019848;28;45566;-88
2022/12/18 06:00:13;;;;;;;;;22.25;16.50;;;;;-1.99;69.09;102088.72;5019811;28;45423;-88
2022/12/18 06:02:39;;;;;;;;;37.25;26.50;;;;;-1.99;69.22;102087.06;5019821;28;45307;-87
2022/12/18 06:05:05;;;;;;;;;35.25;22.25;;;;;-2.00;69.13;102084.44;5003366;28;45269;-88
2022/12/18 06:07:30;;;;;;;;;29.00;23.50;;;;;-2.02;69.11;102080.94;5003263;28;45268;-88
2022/12/18 06:09:56;;;;;;;;;29.75;23.00;;;;;-2.04;69.30;102080.00;5018394;28;46072;-88
2022/12/18 06:12:21;;;;;;;;;26.00;18.00;;;;;-2.03;69.42;102082.59;5019527;28;45408;-88
2022/12/18 06:14:49;;;;;;;;;26.25;25.50;;;;;-2.00;69.46;102084.44;5037625;28;45528;-88
2022/12/18 06:17:14;;;;;;;;;22.00;18.50;;;;;-2.00;68.92;102072.53;5019526;28;45440;-88
2022/12/18 06:19:40;;;;;;;;;28.50;24.00;;;;;-1.99;69.02;102071.75;5019521;28;45467;-88
2022/12/18 06:22:07;;;;;;;;;33.50;22.50;;;;;-1.96;68.90;102074.41;5036991;28;45690;-88
2022/12/18 06:24:33;;;;;;;;;29.00;18.75;;;;;-1.94;69.11;102069.38;5019607;28;45383;-88
2022/12/18 06:27:00;;;;;;;;;29.50;15.75;;;;;-1.93;69.08;102067.69;5003129;28;45288;-88
2022/12/18 06:29:26;;;;;;;;;32.50;18.50;;;;;-1.91;69.33;102068.63;5037019;28;45714;-87
2022/12/18 06:31:58;;;;;;;;;25.00;18.50;;;;;-1.91;68.57;102079.72;5002992;28;46158;-89
2022/12/18 06:34:26;;;;;;;;;30.50;20.00;;;;;-1.87;68.86;102083.28;5037273;28;45254;-89
2022/12/18 06:36:54;;;;;;;;;33.50;21.00;;;;;-1.89;68.83;102075.56;5036714;28;45429;-88
2022/12/18 06:39:20;;;;;;;;;24.25;19.00;;;;;-1.87;69.12;102073.94;5019258;28;45410;-86
2022/12/18 06:41:45;;;;;;;;;22.00;19.50;;;;;-1.85;68.92;102076.56;5018960;28;45409;-86
2022/12/18 06:44:10;;;;;;;;;32.50;24.25;;;;;-1.86;68.67;102068.03;4994191;28;45296;-88
2022/12/18 06:46:37;;;;;;;;;28.00;20.00;;;;;-1.86;68.49;102077.38;5033395;28;45402;-88
2022/12/18 06:49:03;;;;;;;;;27.75;18.75;;;;;-1.88;68.67;102076.44;5039485;28;46376;-89
2022/12/18 06:51:28;;;;;;;;;26.50;21.75;;;;;-1.89;68.79;102067.03;5038133;28;45536;-86
2022/12/18 06:53:54;;;;;;;;;24.25;16.50;;;;;-1.91;68.44;102066.06;5039021;28;45432;-86
2022/12/18 06:56:19;;;;;;;;;27.25;21.00;;;;;-1.94;68.35;102054.06;5022230;28;45386;-88
2022/12/18 06:58:45;;;;;;;;;27.25;23.00;;;;;-2.02;68.41;102058.84;5039198;28;45583;-86
2022/12/18 07:01:12;;;;;;;;;28.00;24.00;;;;;-2.06;68.63;102046.75;5038946;28;45247;-88
2022/12/18 07:03:41;;;;;;;;;18.25;12.75;;;;;-2.07;68.39;102034.81;5022528;28;45378;-86
2022/12/18 07:06:13;;;;;;;;;30.50;16.50;;;;;-2.10;68.58;102039.75;5039178;28;45359;-86
2022/12/18 07:08:39;;;;;;;;;28.75;20.25;;;;;-2.11;68.83;102040.59;5038604;28;47211;-86
2022/12/18 07:11:04;;;;;;;;;27.00;17.00;;;;;-2.08;68.61;102048.38;5056718;28;45364;-88
2022/12/18 07:13:30;;;;;;;;;21.50;18.00;;;;;-2.06;68.85;102053.53;5038937;28;45313;-88
2022/12/18 07:16:03;;;;;;;;;16.00;15.00;;;;;-2.05;68.62;102040.84;5056717;28;45491;-88
2022/12/18 07:18:29;;;;;;;;;22.50;17.50;;;;;-2.04;68.57;102031.53;5038055;28;47675;-88
2022/12/18 07:20:54;;;;;;;;;29.50;22.00;;;;;-2.01;68.79;102035.06;5038401;28;45317;-89
2022/12/18 07:23:20;;;;;;;;;23.25;17.00;;;;;-2.00;68.30;102039.38;5021985;28;45383;-86
2022/12/18 07:25:45;;;;;;;;;25.25;20.00;;;;;-2.01;68.73;102045.25;5038952;28;45435;-89
2022/12/18 07:28:14;;;;;;;;;31.50;24.50;;;;;-2.01;68.46;102045.25;5038479;28;46944;-88
2022/12/18 07:30:51;;;;;;;;;32.25;21.00;;;;;-2.00;68.68;102047.03;5038948;28;45239;-86
2022/12/18 07:33:19;;;;;;;;;21.00;20.00;;;;;-2.04;68.50;102040.03;5056261;28;45278;-88
2022/12/18 07:35:46;;;;;;;;;29.50;20.00;;;;;-2.07;68.35;102042.44;5039198;28;45642;-89
2022/12/18 07:38:14;;;;;;;;;27.00;20.50;;;;;-2.07;68.62;102041.59;5038143;28;46411;-89
2022/12/18 07:40:40;;;;;;;;;24.00;19.00;;;;;-2.13;68.13;102043.88;5037913;28;45815;-89
2022/12/18 07:43:07;;;;;;;;;24.50;20.50;;;;;-2.11;68.60;102062.69;5001836;28;45296;-88
2022/12/18 07:45:33;;;;;;;;;26.50;15.75;;;;;-2.10;68.38;102061.84;5018298;28;45414;-88
2022/12/18 07:47:58;;;;;;;;;27.25;20.00;;;;;-2.09;68.27;102072.13;5018085;28;48153;-89
2022/12/18 07:50:26;;;;;;;;;36.75;24.25;;;;;-2.09;68.15;102077.25;5001913;28;45763;-88
2022/12/18 07:53:03;;;;;;;;;29.50;18.75;;;;;-2.13;68.56;102070.25;5018506;28;45512;-86
2022/12/18 07:55:31;;;;;;;;;23.50;18.50;;;;;-2.15;68.54;102075.28;5018447;28;45315;-86
2022/12/18 07:57:59;;;;;;;;;25.00;21.75;;;;;-2.14;68.49;102071.06;5018225;28;46614;-89
2022/12/18 08:00:25;;;;;;;;;28.25;18.00;;;;;-2.15;68.27;102061.66;5018190;28;46243;-89
2022/12/18 08:02:55;;;;;;;;;29.00;19.00;;;;;-2.10;68.62;102056.75;5017668;28;45416;-89
2022/12/18 08:05:25;;;;;;;;;21.50;18.25;;;;;-2.09;68.19;102055.97;5018278;28;45488;-85
2022/12/18 08:07:54;;;;;;;;;32.50;24.00;;;;;-2.07;68.39;102051.78;5001419;28;47970;-87
2022/12/18 08:13:06;;;;;;;;;27.75;20.75;;;;;-2.00;68.21;102044.47;5041883;22;68059;-87
2022/12/18 08:15:31;;;;;;;;;26.50;18.00;;;;;-1.97;68.46;102044.63;5017872;28;45648;-88
2022/12/18 08:18:20;;;;;;;;;23.25;18.50;;;;;-1.96;67.97;102051.44;5009750;28;47072;-88
2022/12/18 08:20:45;;;;;;;;;23.75;17.50;;;;;-1.90;68.18;102055.06;4992120;28;46068;-89
2022/12/18 08:23:11;;;;;;;;;31.00;21.25;;;;;-1.86;67.73;102054.41;5034955;28;45591;-87
2022/12/18 08:25:36;;;;;;;;;36.50;23.00;;;;;-1.84;67.76;102053.69;5017943;28;45174;-88
2022/12/18 08:28:02;;;;;;;;;33.50;22.50;;;;;-1.86;67.71;102059.50;4997349;28;47672;-88
2022/12/18 08:30:29;;;;;;;;;24.25;19.00;;;;;-1.86;67.69;102067.16;4997863;28;45734;-90
2022/12/18 08:32:55;;;;;;;;;34.50;23.00;;;;;-1.89;67.89;102060.25;5031521;28;45422;-88
2022/12/18 08:35:20;;;;;;;;;37.25;25.75;;;;;-1.81;68.11;102079.31;5004505;28;45413;-85
2022/12/18 08:37:46;;;;;;;;;31.50;23.75;;;;;-1.72;68.14;102068.63;5017995;28;45915;-87
2022/12/18 08:40:12;;;;;;;;;24.00;19.50;;;;;-1.71;67.58;102079.72;5021220;28;45493;-88
2022/12/18 08:45:21;;;;;;;;;25.00;21.25;;;;;-1.76;67.16;102070.19;5022657;28;45392;-85
2022/12/18 08:47:47;;;;;;;;;36.25;19.25;;;;;-1.73;67.26;102076.22;5038452;28;50066;-86
2022/12/18 08:50:12;;;;;;;;;34.75;18.50;;;;;-1.79;67.16;102077.69;5020882;28;45532;-88
2022/12/18 08:52:37;;;;;;;;;31.50;22.00;;;;;-1.79;67.18;102098.13;5004473;28;45414;-87
2022/12/18 08:55:04;;;;;;;;;25.75;19.50;;;;;-1.77;67.14;102099.06;5004294;28;50768;-89
2022/12/18 08:57:29;;;;;;;;;26.00;18.75;;;;;-1.75;67.09;102096.56;5020791;28;47659;-86
2022/12/18 08:59:54;;;;;;;;;37.00;24.50;;;;;-1.76;67.52;102090.59;5019857;28;49595;-83
2022/12/18 09:02:20;;;;;;;;;26.25;20.25;;;;;-1.71;67.25;102087.38;5003482;28;59011;-85
2022/12/18 09:04:47;;;;;;;;;29.50;27.75;;;;;-1.69;67.42;102081.53;5020349;28;59955;-88
2022/12/18 09:07:12;;;;;;;;;33.75;27.50;;;;;-1.59;67.13;102075.13;5020888;28;45397;-88
2022/12/18 09:09:38;;;;;;;;;31.50;26.75;;;;;-1.55;67.47;102077.00;5021311;28;47195;-87
2022/12/18 09:12:03;;;;;;;;;33.50;23.75;;;;;-1.51;67.08;102078.88;5018362;28;45349;-88
2022/12/18 09:14:37;;;;;;;;;31.50;21.00;;;;;-1.48;66.86;102075.59;5038915;28;45352;-89
2022/12/18 09:17:09;;;;;;;;;33.25;24.00;;;;;-1.44;66.98;102082.56;5022541;28;47179;-88
2022/12/18 09:19:34;;;;;;;;;27.25;20.75;;;;;-1.44;66.64;102075.78;5020349;28;45525;-88
2022/12/18 09:21:59;;;;;;;;;24.75;20.75;;;;;-1.38;66.91;102068.34;5018078;28;50180;-86
2022/12/18 09:24:46;;;;;;;;;35.25;21.25;;;;;-1.26;66.98;102070.56;5002598;28;45397;-87
2022/12/18 09:27:12;;;;;;;;;30.00;21.00;;;;;-1.25;66.65;102071.41;5037131;28;45575;-84
2022/12/18 09:30:08;;;;;;;;;34.25;23.50;;;;;-1.20;66.71;102062.25;5018418;28;45373;-89
2022/12/18 09:32:33;;;;;;;;;32.00;24.25;;;;;-1.13;66.69;102055.69;5022866;28;45505;-88
2022/12/18 09:34:59;;;;;;;;;36.50;23.50;;;;;-1.05;66.38;102054.34;5020294;28;45346;-86
2022/12/18 09:37:27;;;;;;;;;22.25;19.00;;;;;-1.03;65.79;102056.13;5020617;28;45573;-88
2022/12/18 09:39:52;;;;;;;;;34.75;21.25;;;;;-1.03;66.16;102053.56;5016598;28;45520;-87
2022/12/18 09:42:20;;;;;;;;;35.50;25.00;;;;;-0.96;66.09;102062.38;5014615;28;45499;-86
2022/12/18 09:44:50;;;;;;;;;40.50;26.25;;;;;-0.95;65.78;102066.66;5037354;28;45342;-87
2022/12/18 09:47:28;;;;;;;;;24.25;17.00;;;;;-0.92;65.98;102071.91;5019696;28;45554;-86
2022/12/18 09:49:58;;;;;;;;;42.25;24.75;;;;;-0.87;65.70;102057.63;5019548;28;45932;-86
2022/12/18 09:52:45;;;;;;;;;28.50;23.50;;;;;-0.77;65.69;102066.50;5019867;28;45618;-86
2022/12/18 09:55:25;;;;;;;;;24.00;19.50;;;;;-0.78;64.99;102064.75;5002788;28;45595;-87
2022/12/18 09:58:28;;;;;;;;;36.25;25.50;;;;;-0.75;65.39;102067.44;5019367;28;47437;-86
2022/12/18 10:00:54;;;;;;;;;37.00;26.00;;;;;-0.76;65.28;102063.16;5019653;28;45812;-87
2022/12/18 10:03:20;;;;;;;;;33.25;25.75;;;;;-0.70;65.00;102065.94;5001289;28;45276;-88
2022/12/18 10:06:03;;;;;;;;;28.25;15.25;;;;;-0.60;65.67;102062.03;5003057;28;45538;-91
2022/12/18 10:08:46;;;;;;;;;38.25;23.50;;;;;-0.45;65.51;102052.38;5037054;28;46254;-88
2022/12/18 10:11:33;;;;;;;;;31.25;21.50;;;;;-0.31;65.54;102058.03;5019217;28;46042;-87
2022/12/18 10:14:04;;;;;;;;;30.75;20.00;;;;;-0.22;65.12;102050.69;5037828;28;45504;-90
2022/12/18 10:16:50;;;;;;;;;30.50;26.75;;;;;-0.15;65.26;102046.63;5037797;28;45403;-89
2022/12/18 10:19:41;;;;;;;;;33.00;27.00;;;;;-0.07;65.06;102060.59;5019609;28;46810;-89
2022/12/18 10:22:35;;;;;;;;;36.00;27.00;;;;;-0.04;64.23;102047.94;5020006;28;45816;-91
2022/12/18 10:25:17;;;;;;;;;30.25;24.75;;;;;-0.01;63.94;102044.59;5020339;28;45314;-90
2022/12/18 10:27:42;;;;;;;;;31.00;24.25;;;;;-0.04;64.26;102037.69;5018740;28;45571;-88
2022/12/18 10:34:12;;;;;;;;;31.50;27.00;;;;;0.10;64.22;102038.16;4995471;28;45921;-90
2022/12/18 10:36:38;;;;;;;;;29.75;22.00;;;;;0.10;63.90;102040.72;4975758;28;45431;-87
2022/12/18 10:39:18;;;;;;;;;37.00;26.00;;;;;0.22;63.89;102036.84;4940161;28;45352;-87
2022/12/18 10:41:44;;;;;;;;;33.75;27.00;;;;;0.33;64.03;102041.50;4963520;28;46252;-86
2022/12/18 10:44:21;;;;;;;;;36.00;22.50;;;;;0.41;63.68;102034.09;4988247;28;45608;-85
2022/12/18 10:46:49;;;;;;;;;39.00;31.25;;;;;0.50;63.81;102038.63;4978385;28;45768;-85
2022/12/18 10:49:28;;;;;;;;;34.75;26.25;;;;;0.55;63.19;102034.53;4976900;28;45477;-89
2022/12/18 10:52:07;;;;;;;;;37.75;31.25;;;;;0.61;63.15;102031.31;4940216;28;45301;-87
2022/12/18 10:54:34;;;;;;;;;29.25;23.00;;;;;0.68;63.36;102023.00;4952527;28;45621;-88
2022/12/18 10:57:36;;;;;;;;;36.75;27.00;;;;;0.74;63.48;102020.63;4978413;28;45395;-89
2022/12/18 11:00:22;;;;;;;;;31.25;22.75;;;;;0.86;63.15;102018.47;4990957;28;45468;-90
2022/12/18 11:02:48;;;;;;;;;37.00;27.50;;;;;0.90;62.92;102012.59;4974805;28;47410;-87
2022/12/18 11:05:31;;;;;;;;;42.50;28.00;;;;;1.00;62.98;102020.59;4974617;28;45487;-88
2022/12/18 11:07:58;;;;;;;;;36.00;23.00;;;;;1.03;62.59;102020.69;4962074;28;45482;-87
2022/12/18 11:10:35;;;;;;;;;41.00;28.50;;;;;1.05;62.48;102019.03;5003337;28;45395;-84
2022/12/18 11:13:15;;;;;;;;;36.25;21.75;;;;;1.09;62.28;102019.16;5017418;28;47105;-86
2022/12/18 11:15:53;;;;;;;;;46.00;26.50;;;;;1.07;62.29;102017.38;5004500;28;45580;-87
2022/12/18 11:18:27;;;;;;;;;38.50;30.25;;;;;1.09;62.23;102026.00;5000623;28;45350;-87
2022/12/18 11:21:16;;;;;;;;;26.25;15.00;;;;;1.15;62.00;102016.81;5035841;28;45337;-88
2022/12/18 11:23:52;;;;;;;;;37.00;26.00;;;;;1.15;62.08;102010.78;5027492;28;47133;-87
2022/12/18 11:26:25;;;;;;;;;43.75;24.25;;;;;1.16;62.07;101998.00;5037942;28;45263;-87
2022/12/18 11:28:52;;;;;;;;;41.50;25.00;;;;;1.25;62.41;101992.28;5019776;28;45326;-90
2022/12/18 11:31:30;;;;;;;;;41.00;28.50;;;;;1.33;61.86;101988.25;5019212;28;45667;-88
2022/12/18 11:34:04;;;;;;;;;31.50;21.50;;;;;1.32;61.86;101989.09;5018758;28;46264;-89
2022/12/18 11:36:34;;;;;;;;;32.50;27.75;;;;;1.32;61.89;101980.53;5018155;28;45316;-88